KDXR/DXR METAR and TAF weather

Enter ICAO airport designator
Station Type Date Time Source
KDXR METAR 2019/08/24 19:53 UTC NOAA

KDXR 241953Z 35005KT 10SM BKN060 23/10 A3017 RMK AO2 SLP216 T02280100


Station Type Date Time Source
KDXR Decoded METAR 2019/08/24 19:53 UTC NOAA

Station name not available
Aug 24, 2019 - 03:53 PM EDT / 2019.08.24 1953 UTC
Wind: from the N (350 degrees) at 6 MPH (5 KT):0
Visibility: 10 mile(s):0
Sky conditions: mostly cloudy
Temperature: 73.0 F (22.8 C)
Dew Point: 50.0 F (10.0 C)
Relative Humidity: 44%
Pressure (altimeter): 30.17 in. Hg (1021 hPa)
ob: KDXR 241953Z 35005KT 10SM BKN060 23/10 A3017 RMK AO2 SLP216 T02280100
cycle: 20

Station Type Date Time Source
KDXR TAF UTC NOAA

Error!

Example: see airport list